Time;durP1;ratioP1;P1;durP2;ratioP2;P2;SDS_P1;SDS_P2;PMS_P1;PMS_P2;Temp;Humidity;BMP_temperature;BMP_pressure;BME280_temperature;BME280_humidity;BME280_pressure;Samples;Min_cycle;Max_cycle;Signal;HPM_P1;HPM_P2
2022/07/30 00:01:29;;;;;;;7.30;4.25;;;20.20;60.90;;;;;;5037827;28;20872;-63
2022/07/30 00:03:55;;;;;;;6.95;3.92;;;20.20;59.40;;;;;;5037570;28;20053;-63
2022/07/30 00:06:20;;;;;;;5.85;4.10;;;20.20;62.00;;;;;;5037537;28;20046;-63
2022/07/30 00:08:46;;;;;;;8.23;4.20;;;20.10;59.90;;;;;;5037504;28;20037;-63
2022/07/30 00:11:14;;;;;;;8.02;3.90;;;20.10;62.30;;;;;;5037809;28;20029;-63
2022/07/30 00:13:40;;;;;;;10.02;3.88;;;20.10;62.50;;;;;;5037390;28;20030;-63
2022/07/30 00:16:06;;;;;;;7.57;4.00;;;20.10;62.50;;;;;;5037443;28;20083;-63
2022/07/30 00:18:32;;;;;;;7.60;4.00;;;20.10;61.60;;;;;;5037761;28;20033;-63
2022/07/30 00:20:58;;;;;;;7.90;4.43;;;20.00;62.40;;;;;;5037401;28;20032;-63
2022/07/30 00:23:23;;;;;;;7.25;4.07;;;20.00;62.00;;;;;;5037538;28;20083;-63
2022/07/30 00:25:49;;;;;;;8.32;3.70;;;20.00;63.20;;;;;;5037616;28;20085;-62
2022/07/30 00:28:15;;;;;;;5.72;3.78;;;19.90;63.70;;;;;;5037723;28;20031;-62
2022/07/30 00:30:41;;;;;;;8.07;4.72;;;19.90;61.70;;;;;;5037259;28;20035;-63
2022/07/30 00:33:07;;;;;;;8.20;4.40;;;19.90;62.60;;;;;;5037081;28;20025;-63
2022/07/30 00:35:33;;;;;;;7.10;4.32;;;19.80;61.40;;;;;;5037251;28;20064;-63
2022/07/30 00:37:58;;;;;;;8.93;4.32;;;19.80;60.80;;;;;;5037385;28;20384;-63
2022/07/30 00:40:24;;;;;;;7.18;4.32;;;19.70;63.30;;;;;;5036966;28;20025;-63
2022/07/30 00:42:50;;;;;;;6.28;4.03;;;19.70;61.30;;;;;;5037660;28;20009;-62
2022/07/30 00:45:17;;;;;;;5.78;4.00;;;19.60;63.00;;;;;;5037300;28;20029;-63
2022/07/30 00:47:43;;;;;;;6.55;3.72;;;19.60;63.90;;;;;;5037302;28;20573;-62
2022/07/30 00:50:11;;;;;;;7.82;3.60;;;19.60;63.60;;;;;;5036393;28;20034;-63
2022/07/30 00:52:38;;;;;;;9.43;4.30;;;19.60;62.00;;;;;;5036926;28;20034;-63
2022/07/30 00:55:06;;;;;;;6.28;3.90;;;19.50;63.40;;;;;;5036892;28;20128;-63
2022/07/30 00:57:31;;;;;;;8.90;4.00;;;19.50;63.20;;;;;;5037208;28;20033;-63
2022/07/30 00:59:57;;;;;;;7.13;3.47;;;19.50;63.60;;;;;;5036542;28;20396;-63
2022/07/30 01:02:23;;;;;;;7.38;3.92;;;19.50;64.90;;;;;;5036788;28;20399;-63
2022/07/30 01:04:49;;;;;;;8.38;4.10;;;19.40;64.90;;;;;;5040525;28;20028;-63
2022/07/30 01:07:15;;;;;;;8.02;3.75;;;19.30;65.00;;;;;;5039720;28;20037;-63
2022/07/30 01:09:41;;;;;;;5.93;3.60;;;19.30;64.70;;;;;;5041019;28;20026;-63
2022/07/30 01:12:09;;;;;;;6.82;3.60;;;19.30;64.90;;;;;;5040572;28;20075;-63
2022/07/30 01:14:36;;;;;;;6.88;3.95;;;19.20;64.40;;;;;;5040348;28;20085;-63
2022/07/30 01:17:03;;;;;;;6.05;3.72;;;19.20;65.10;;;;;;5040489;28;20026;-63
2022/07/30 01:19:48;;;;;;;7.90;4.10;;;19.20;63.40;;;;;;5022849;28;20102;-63
2022/07/30 01:22:28;;;;;;;6.85;4.10;;;19.20;65.10;;;;;;5040791;28;20029;-62
2022/07/30 01:25:03;;;;;;;7.13;3.90;;;19.10;64.90;;;;;;5040334;28;20029;-63
2022/07/30 01:27:37;;;;;;;7.18;4.70;;;19.00;65.30;;;;;;5040476;28;20017;-63
2022/07/30 01:30:05;;;;;;;8.13;4.68;;;19.00;65.20;;;;;;5040431;28;20116;-63
2022/07/30 01:32:33;;;;;;;8.30;4.53;;;19.00;63.70;;;;;;5040319;28;20026;-63
2022/07/30 01:35:01;;;;;;;7.43;4.43;;;19.00;63.80;;;;;;5040729;28;20024;-63
2022/07/30 01:37:29;;;;;;;9.27;4.97;;;18.90;64.30;;;;;;5040124;28;20477;-62
2022/07/30 01:39:55;;;;;;;9.73;4.82;;;18.80;63.40;;;;;;5040428;28;20036;-62
2022/07/30 01:42:25;;;;;;;8.45;5.22;;;18.80;64.90;;;;;;5040243;28;20431;-62
2022/07/30 01:44:52;;;;;;;9.52;4.95;;;18.80;63.60;;;;;;5040389;28;20024;-63
2022/07/30 01:47:21;;;;;;;6.80;4.35;;;18.80;64.00;;;;;;5040308;28;20022;-63
2022/07/30 01:49:49;;;;;;;9.60;5.28;;;18.80;65.90;;;;;;5040266;28;20452;-62
2022/07/30 01:52:18;;;;;;;7.43;4.53;;;18.80;63.00;;;;;;5040134;28;20018;-62
2022/07/30 01:54:48;;;;;;;6.70;4.25;;;18.80;64.80;;;;;;5040140;28;20021;-62
2022/07/30 01:57:17;;;;;;;7.50;3.85;;;18.80;65.60;;;;;;5039883;28;20064;-62
2022/07/30 01:59:48;;;;;;;7.45;4.20;;;18.80;65.80;;;;;;5040074;28;20025;-63
2022/07/30 02:02:13;;;;;;;11.70;4.38;;;18.80;63.70;;;;;;5039899;28;20071;-62
2022/07/30 02:04:40;;;;;;;6.05;4.10;;;18.70;64.80;;;;;;5039738;28;20105;-62
2022/07/30 02:07:13;;;;;;;7.25;4.60;;;18.70;65.60;;;;;;5039688;28;20033;-62
2022/07/30 02:09:58;;;;;;;9.82;5.00;;;18.70;64.90;;;;;;5039902;28;20045;-62
2022/07/30 02:12:28;;;;;;;8.18;4.50;;;18.60;63.60;;;;;;5039887;28;20389;-63
2022/07/30 02:14:59;;;;;;;6.43;4.00;;;18.60;66.10;;;;;;5038629;28;20022;-62
2022/07/30 02:17:38;;;;;;;9.27;4.30;;;18.60;65.70;;;;;;5039482;28;20034;-62
2022/07/30 02:20:05;;;;;;;6.90;3.70;;;18.60;66.50;;;;;;5039439;28;20026;-62
2022/07/30 02:22:34;;;;;;;6.25;3.95;;;18.50;64.70;;;;;;5039419;28;20018;-62
2022/07/30 02:25:01;;;;;;;9.60;4.45;;;18.50;65.80;;;;;;5039480;28;20021;-62
2022/07/30 02:27:32;;;;;;;9.23;4.22;;;18.40;65.80;;;;;;5039268;28;20026;-63
2022/07/30 02:30:00;;;;;;;7.18;3.78;;;18.40;64.40;;;;;;5038996;28;20025;-62
2022/07/30 02:32:29;;;;;;;5.50;3.75;;;18.30;64.20;;;;;;5039079;28;20026;-63
2022/07/30 02:35:00;;;;;;;7.22;4.25;;;18.30;67.00;;;;;;5038534;28;20545;-63
2022/07/30 02:37:28;;;;;;;8.02;4.85;;;18.30;65.20;;;;;;5039001;28;20432;-63
2022/07/30 02:39:54;;;;;;;8.93;4.30;;;18.20;64.10;;;;;;5038567;28;20071;-62
2022/07/30 02:42:22;;;;;;;8.23;4.32;;;18.20;66.10;;;;;;5038917;28;20084;-62
2022/07/30 02:44:51;;;;;;;7.75;4.40;;;18.10;64.00;;;;;;5039127;28;20453;-62
2022/07/30 02:47:22;;;;;;;9.15;4.32;;;18.10;65.20;;;;;;5039339;28;20014;-62
2022/07/30 02:49:49;;;;;;;6.88;4.10;;;18.10;64.90;;;;;;5039022;28;20021;-62
2022/07/30 02:52:17;;;;;;;6.95;4.38;;;18.00;67.60;;;;;;5038090;28;20020;-62
2022/07/30 02:54:44;;;;;;;8.20;4.53;;;18.00;67.70;;;;;;5038832;28;20030;-63
2022/07/30 02:57:12;;;;;;;7.88;4.13;;;18.00;65.40;;;;;;5038980;28;20014;-63
2022/07/30 02:59:42;;;;;;;6.68;3.60;;;18.00;67.60;;;;;;5038042;28;20148;-62
2022/07/30 03:02:10;;;;;;;5.95;4.00;;;17.90;67.90;;;;;;5038749;28;20025;-63
2022/07/30 03:04:37;;;;;;;6.10;3.47;;;17.90;66.20;;;;;;5038579;28;20029;-63
2022/07/30 03:07:05;;;;;;;6.95;3.80;;;17.90;65.60;;;;;;5038558;28;20041;-62
2022/07/30 03:09:32;;;;;;;7.47;3.85;;;17.90;67.40;;;;;;5038788;28;20029;-62
2022/07/30 03:11:59;;;;;;;6.13;3.70;;;17.90;67.60;;;;;;5038607;28;20041;-62
2022/07/30 03:14:25;;;;;;;7.03;4.10;;;17.80;65.60;;;;;;5038497;28;20021;-63
2022/07/30 03:16:57;;;;;;;6.45;4.05;;;17.80;66.10;;;;;;5038272;28;20033;-62
2022/07/30 03:19:28;;;;;;;8.38;4.25;;;17.80;65.10;;;;;;5038366;28;20469;-62
2022/07/30 03:21:56;;;;;;;6.07;3.55;;;17.70;65.10;;;;;;5038065;28;20021;-62
2022/07/30 03:24:24;;;;;;;7.90;3.53;;;17.60;69.00;;;;;;5038501;28;20110;-62
2022/07/30 03:26:52;;;;;;;5.22;3.35;;;17.60;68.80;;;;;;5038238;28;20021;-62
2022/07/30 03:29:21;;;;;;;7.00;3.70;;;17.60;67.30;;;;;;5038430;28;20036;-62
2022/07/30 03:31:48;;;;;;;6.60;3.67;;;17.60;66.20;;;;;;5038116;28;20029;-62
2022/07/30 03:34:16;;;;;;;6.88;4.03;;;17.60;67.20;;;;;;5048217;28;20112;-62
2022/07/30 03:36:42;;;;;;;6.22;3.70;;;17.60;66.70;;;;;;5058008;28;20032;-62
2022/07/30 03:39:08;;;;;;;7.13;4.07;;;17.60;67.70;;;;;;5057468;28;20029;-62
2022/07/30 03:41:38;;;;;;;6.82;4.20;;;17.50;68.40;;;;;;5057595;28;20021;-63
2022/07/30 03:44:04;;;;;;;8.05;3.75;;;17.50;67.00;;;;;;5040371;28;20496;-63
2022/07/30 03:46:31;;;;;;;8.45;4.13;;;17.50;66.10;;;;;;5038699;28;20071;-62
2022/07/30 03:48:59;;;;;;;8.23;4.30;;;17.50;66.50;;;;;;5037747;28;20112;-63
2022/07/30 03:51:26;;;;;;;5.85;3.42;;;17.50;66.80;;;;;;5037807;28;20473;-62
2022/07/30 03:53:52;;;;;;;5.75;3.60;;;17.50;67.80;;;;;;5037493;28;20057;-62
2022/07/30 03:56:18;;;;;;;6.45;3.40;;;17.40;67.30;;;;;;5036324;28;20037;-62
2022/07/30 03:58:44;;;;;;;8.07;3.47;;;17.30;69.30;;;;;;5037645;28;20147;-62
2022/07/30 04:01:10;;;;;;;6.28;3.78;;;17.40;69.00;;;;;;5037153;28;20056;-62
2022/07/30 04:03:36;;;;;;;7.40;4.03;;;17.40;67.90;;;;;;5037382;28;20036;-62
2022/07/30 04:06:02;;;;;;;7.43;3.88;;;17.30;69.70;;;;;;5037380;28;20041;-62
2022/07/30 04:08:28;;;;;;;8.32;4.13;;;17.40;68.20;;;;;;5037589;28;20025;-62
2022/07/30 04:10:53;;;;;;;7.60;4.35;;;17.30;67.70;;;;;;5037549;28;20098;-62
2022/07/30 04:13:19;;;;;;;6.70;3.80;;;17.30;68.70;;;;;;5044034;28;20025;-62
2022/07/30 04:16:12;;;;;;;8.10;4.07;;;17.40;67.60;;;;;;5043446;28;20035;-62
2022/07/30 04:18:44;;;;;;;8.43;3.97;;;17.30;69.80;;;;;;5036536;28;20034;-62
2022/07/30 04:21:13;;;;;;;7.47;3.90;;;17.30;70.00;;;;;;5037622;28;20021;-62
2022/07/30 04:23:40;;;;;;;5.43;3.80;;;17.30;69.70;;;;;;5049053;28;20052;-62
2022/07/30 04:26:07;;;;;;;6.55;3.95;;;17.30;70.10;;;;;;5040571;28;20488;-62
2022/07/30 04:28:34;;;;;;;6.05;3.60;;;17.30;69.50;;;;;;5052070;28;20029;-62
2022/07/30 04:31:00;;;;;;;7.55;3.75;;;17.20;70.40;;;;;;5037654;28;20052;-63
2022/07/30 04:33:26;;;;;;;7.82;4.00;;;17.30;71.00;;;;;;5039173;28;20041;-62
2022/07/30 04:35:53;;;;;;;6.10;4.05;;;17.20;70.00;;;;;;5045325;28;20017;-62
2022/07/30 04:38:19;;;;;;;8.15;4.57;;;17.30;71.00;;;;;;5058780;28;20033;-62
2022/07/30 04:40:45;;;;;;;7.35;3.92;;;17.20;70.80;;;;;;5061138;28;20017;-62
2022/07/30 04:43:11;;;;;;;7.10;4.15;;;17.20;70.60;;;;;;5054801;28;20616;-62
2022/07/30 04:45:38;;;;;;;6.75;4.05;;;17.10;69.20;;;;;;5050873;28;20021;-62
2022/07/30 04:48:05;;;;;;;7.95;4.20;;;17.20;70.00;;;;;;5053475;28;20030;-62
2022/07/30 04:50:34;;;;;;;8.95;4.82;;;17.10;69.00;;;;;;5041055;28;20033;-62
2022/07/30 04:53:00;;;;;;;8.88;4.32;;;17.20;69.70;;;;;;5041128;28;20021;-62
2022/07/30 04:55:26;;;;;;;7.70;4.15;;;17.10;70.50;;;;;;5045304;28;20137;-62
2022/07/30 04:57:53;;;;;;;8.93;4.68;;;17.10;70.10;;;;;;5041017;28;20064;-62
2022/07/30 05:00:19;;;;;;;9.57;4.60;;;17.10;67.40;;;;;;5040882;28;20097;-62
2022/07/30 05:02:48;;;;;;;11.13;4.93;;;17.00;67.80;;;;;;5040660;28;20057;-62
2022/07/30 05:05:15;;;;;;;7.68;4.20;;;17.00;67.90;;;;;;5040729;28;20029;-62
2022/07/30 05:07:42;;;;;;;9.13;5.05;;;17.00;70.50;;;;;;5040418;28;20463;-62
2022/07/30 05:10:10;;;;;;;9.25;4.60;;;16.90;69.90;;;;;;5040745;28;20030;-62
2022/07/30 05:12:36;;;;;;;8.35;4.85;;;16.90;70.20;;;;;;5045738;28;20029;-62
2022/07/30 05:15:07;;;;;;;7.20;4.60;;;16.90;70.10;;;;;;5060870;28;20057;-62
2022/07/30 05:17:34;;;;;;;6.68;4.90;;;17.00;68.90;;;;;;5054871;28;20041;-62
2022/07/30 05:19:59;;;;;;;7.32;4.05;;;17.00;70.00;;;;;;5040269;28;20032;-62
2022/07/30 05:22:28;;;;;;;8.20;4.30;;;16.90;72.20;;;;;;5044812;28;20044;-62
2022/07/30 05:24:58;;;;;;;5.53;3.83;;;17.00;71.30;;;;;;5051380;28;20025;-61
2022/07/30 05:27:23;;;;;;;8.90;4.75;;;17.00;69.90;;;;;;5052953;28;20420;-62
2022/07/30 05:29:49;;;;;;;7.15;4.90;;;17.00;70.70;;;;;;5059876;28;20460;-62
2022/07/30 05:32:15;;;;;;;6.88;4.10;;;16.90;68.60;;;;;;5060164;28;20021;-62
2022/07/30 05:34:41;;;;;;;8.88;4.55;;;17.00;71.50;;;;;;5045577;28;20118;-61
2022/07/30 05:37:07;;;;;;;9.15;5.30;;;17.00;69.30;;;;;;5041322;28;20022;-62
2022/07/30 05:39:33;;;;;;;7.53;4.82;;;17.00;69.80;;;;;;5041512;28;20060;-63
2022/07/30 05:41:58;;;;;;;8.70;4.72;;;17.00;69.30;;;;;;5040277;28;20085;-61
2022/07/30 05:44:24;;;;;;;7.32;4.57;;;17.00;72.20;;;;;;5040192;28;20048;-62
2022/07/30 05:46:51;;;;;;;8.80;4.68;;;17.00;72.00;;;;;;5040414;28;20021;-62
2022/07/30 05:49:16;;;;;;;6.85;4.60;;;17.10;71.40;;;;;;5039776;28;20393;-62
2022/07/30 05:51:42;;;;;;;8.57;5.25;;;17.10;72.00;;;;;;5039660;28;20029;-62
2022/07/30 05:54:08;;;;;;;10.50;5.93;;;17.20;70.20;;;;;;5039923;28;20140;-62
2022/07/30 05:56:35;;;;;;;9.27;5.65;;;17.20;69.10;;;;;;5039846;28;20374;-62
2022/07/30 05:59:01;;;;;;;11.73;6.10;;;17.30;72.80;;;;;;5039867;28;20021;-62
2022/07/30 06:01:27;;;;;;;8.70;5.20;;;17.30;72.70;;;;;;5039844;28;20489;-62
2022/07/30 06:03:52;;;;;;;9.13;5.40;;;17.40;72.50;;;;;;5039911;28;20018;-62
2022/07/30 06:06:18;;;;;;;8.77;6.07;;;17.50;70.90;;;;;;5039594;28;20095;-62
2022/07/30 06:08:44;;;;;;;10.73;6.35;;;17.50;70.10;;;;;;5048251;28;20098;-62
2022/07/30 06:11:10;;;;;;;8.95;6.10;;;17.50;72.20;;;;;;5039680;28;20028;-62
2022/07/30 06:13:36;;;;;;;12.27;6.93;;;17.60;70.40;;;;;;5038851;28;20037;-61
2022/07/30 06:16:03;;;;;;;13.07;7.45;;;17.70;72.60;;;;;;5024454;28;20575;-62
2022/07/30 06:18:29;;;;;;;10.93;7.40;;;17.70;70.30;;;;;;5035483;28;20044;-62
2022/07/30 06:20:55;;;;;;;9.27;6.82;;;17.80;71.90;;;;;;5037763;28;20026;-62
2022/07/30 06:23:22;;;;;;;13.48;9.32;;;17.90;70.90;;;;;;5039146;28;20025;-62
2022/07/30 06:25:48;;;;;;;12.63;8.68;;;17.90;72.80;;;;;;5039553;28;20112;-62
2022/07/30 06:28:16;;;;;;;9.90;7.22;;;18.00;73.10;;;;;;5038354;28;20033;-62
2022/07/30 06:30:44;;;;;;;9.63;5.32;;;18.10;72.50;;;;;;5039625;28;20473;-62
2022/07/30 06:33:10;;;;;;;9.23;6.00;;;18.10;70.40;;;;;;5038794;28;20021;-62
2022/07/30 06:35:36;;;;;;;11.85;8.23;;;18.20;72.10;;;;;;5039293;28;20033;-62
2022/07/30 06:38:02;;;;;;;9.05;6.05;;;18.20;72.10;;;;;;5040343;28;20406;-62
2022/07/30 06:40:28;;;;;;;11.93;9.25;;;18.30;71.40;;;;;;5039109;28;20025;-61
2022/07/30 06:42:54;;;;;;;7.95;5.50;;;18.30;72.40;;;;;;5038297;28;20047;-62
2022/07/30 06:45:19;;;;;;;9.05;5.10;;;18.40;72.50;;;;;;5038905;28;20048;-62
2022/07/30 06:47:45;;;;;;;8.93;5.57;;;18.50;72.20;;;;;;5040382;28;20068;-61
2022/07/30 06:50:11;;;;;;;7.20;3.97;;;18.50;73.40;;;;;;5021878;28;20524;-62
2022/07/30 06:52:37;;;;;;;9.38;5.28;;;18.60;72.60;;;;;;5040639;28;20033;-62
2022/07/30 06:55:03;;;;;;;6.55;4.20;;;18.60;72.20;;;;;;5043401;28;20052;-62
2022/07/30 06:57:29;;;;;;;6.72;3.92;;;18.70;73.70;;;;;;5048147;28;20029;-62
2022/07/30 06:59:55;;;;;;;6.97;3.47;;;18.80;73.80;;;;;;5037922;28;20025;-62
2022/07/30 07:02:21;;;;;;;6.82;4.47;;;18.80;73.50;;;;;;5036817;28;20068;-62
2022/07/30 07:04:46;;;;;;;6.18;4.00;;;18.90;73.20;;;;;;5039229;28;20049;-62
2022/07/30 07:07:12;;;;;;;7.20;3.95;;;18.90;71.80;;;;;;5039009;28;20046;-62
2022/07/30 07:09:38;;;;;;;4.25;2.90;;;19.00;73.90;;;;;;5038346;28;20132;-62
2022/07/30 07:12:04;;;;;;;4.38;3.15;;;19.10;72.80;;;;;;5037584;28;20488;-62
2022/07/30 07:14:30;;;;;;;5.82;3.00;;;19.20;72.10;;;;;;5038359;28;20506;-62
2022/07/30 07:16:55;;;;;;;4.50;2.70;;;19.20;71.80;;;;;;5042221;28;20048;-62
2022/07/30 07:19:23;;;;;;;5.13;3.80;;;19.30;71.70;;;;;;5036985;28;20064;-62
2022/07/30 07:21:48;;;;;;;4.50;2.90;;;19.30;72.90;;;;;;5039000;28;20068;-62
2022/07/30 07:24:14;;;;;;;4.68;2.47;;;19.40;71.50;;;;;;5042396;28;20029;-63
2022/07/30 07:26:40;;;;;;;3.50;2.50;;;19.50;72.50;;;;;;5037958;28;20100;-62
2022/07/30 07:29:06;;;;;;;4.88;2.50;;;19.50;73.20;;;;;;5037646;28;20060;-62
2022/07/30 07:31:31;;;;;;;4.15;2.72;;;19.60;72.30;;;;;;5041376;28;20043;-62
2022/07/30 07:33:57;;;;;;;4.10;2.47;;;19.60;71.60;;;;;;5044379;28;20037;-63
2022/07/30 07:36:23;;;;;;;4.40;2.53;;;19.70;71.40;;;;;;5041524;28;20021;-63
2022/07/30 07:38:49;;;;;;;3.05;2.08;;;19.80;71.60;;;;;;5043443;28;20029;-62
2022/07/30 07:41:15;;;;;;;4.50;2.80;;;19.80;71.10;;;;;;5040600;28;20399;-63
2022/07/30 07:43:41;;;;;;;3.33;1.92;;;19.90;71.70;;;;;;5039761;28;20085;-63
2022/07/30 07:46:07;;;;;;;2.30;2.00;;;20.00;71.00;;;;;;5037741;28;20100;-63
2022/07/30 07:48:33;;;;;;;2.80;2.10;;;20.10;71.00;;;;;;5037493;28;20030;-62
2022/07/30 07:50:59;;;;;;;2.92;1.88;;;20.30;70.50;;;;;;5037252;28;20059;-63
2022/07/30 07:53:25;;;;;;;3.10;2.15;;;20.30;70.50;;;;;;5035745;28;20025;-63
2022/07/30 07:55:51;;;;;;;3.80;3.05;;;20.50;70.30;;;;;;5037345;28;20561;-63
2022/07/30 07:58:17;;;;;;;2.00;1.67;;;20.60;70.90;;;;;;5037420;28;20535;-63
2022/07/30 08:00:43;;;;;;;3.08;1.88;;;20.70;69.30;;;;;;5037368;28;20061;-63
2022/07/30 08:03:09;;;;;;;3.28;1.80;;;20.70;69.60;;;;;;5037474;28;20029;-62
2022/07/30 08:05:35;;;;;;;2.72;1.80;;;20.80;69.00;;;;;;5037113;28;20537;-63
2022/07/30 08:08:01;;;;;;;3.15;2.00;;;20.80;69.90;;;;;;5036264;28;20124;-63
2022/07/30 08:10:26;;;;;;;2.72;1.80;;;20.90;69.70;;;;;;5036833;28;20072;-62
2022/07/30 08:12:52;;;;;;;3.33;1.90;;;21.00;69.10;;;;;;5036739;28;20044;-62
2022/07/30 08:15:18;;;;;;;2.90;2.00;;;21.10;69.10;;;;;;5037034;28;20048;-63
2022/07/30 08:17:46;;;;;;;1.70;1.60;;;21.20;69.20;;;;;;5037315;28;20029;-62
2022/07/30 08:20:13;;;;;;;2.22;1.38;;;21.30;69.20;;;;;;5035942;28;20025;-63
2022/07/30 08:22:40;;;;;;;2.63;1.80;;;21.40;68.20;;;;;;5033818;28;20032;-62
2022/07/30 08:25:07;;;;;;;3.38;1.60;;;21.50;68.30;;;;;;5033546;28;20049;-63
2022/07/30 08:27:33;;;;;;;1.65;1.55;;;21.50;67.70;;;;;;5034295;28;20017;-63
2022/07/30 08:30:07;;;;;;;2.45;1.50;;;21.50;67.60;;;;;;5034328;28;20040;-63
2022/07/30 08:32:34;;;;;;;2.35;1.48;;;21.40;67.30;;;;;;5035080;28;20531;-63
2022/07/30 08:34:59;;;;;;;1.85;1.52;;;21.40;67.60;;;;;;5036184;28;20064;-63
2022/07/30 08:37:25;;;;;;;1.65;1.42;;;21.30;67.80;;;;;;5036713;28;20384;-62
2022/07/30 08:39:51;;;;;;;1.48;1.35;;;21.40;67.70;;;;;;5037632;28;20610;-63
2022/07/30 08:42:17;;;;;;;2.55;1.52;;;21.40;67.70;;;;;;5037025;28;20049;-63
2022/07/30 08:44:45;;;;;;;2.15;1.67;;;21.50;67.80;;;;;;5037465;28;20052;-63
2022/07/30 08:47:16;;;;;;;2.22;1.40;;;21.60;68.00;;;;;;5037359;28;20105;-63
2022/07/30 08:49:42;;;;;;;2.38;1.60;;;21.70;67.60;;;;;;5037614;28;20036;-63
2022/07/30 08:52:09;;;;;;;1.98;1.77;;;21.70;66.80;;;;;;5036951;28;20029;-63
2022/07/30 08:54:35;;;;;;;2.50;1.60;;;21.70;67.10;;;;;;5037054;28;20025;-63
2022/07/30 08:57:02;;;;;;;2.25;1.45;;;21.70;67.30;;;;;;5037300;28;20032;-63
2022/07/30 08:59:28;;;;;;;2.67;1.58;;;21.70;67.30;;;;;;5036969;28;20028;-63
2022/07/30 09:01:53;;;;;;;1.90;1.40;;;21.80;67.50;;;;;;5037393;28;20025;-63
2022/07/30 09:04:19;;;;;;;1.67;1.40;;;21.90;67.30;;;;;;5037212;28;20083;-63
2022/07/30 09:06:45;;;;;;;2.65;1.50;;;21.90;66.60;;;;;;5036800;28;20046;-62
2022/07/30 09:09:11;;;;;;;3.45;1.75;;;21.90;66.50;;;;;;5036906;28;20021;-63
2022/07/30 09:11:36;;;;;;;3.13;1.75;;;21.90;67.00;;;;;;5036643;28;20032;-62
2022/07/30 09:14:10;;;;;;;2.17;1.50;;;21.90;67.00;;;;;;5036815;28;20075;-63
2022/07/30 09:16:36;;;;;;;2.70;1.63;;;22.00;66.90;;;;;;5037116;28;20113;-63
2022/07/30 09:19:12;;;;;;;1.92;1.50;;;22.00;66.00;;;;;;5018690;28;20076;-63
2022/07/30 09:21:37;;;;;;;2.78;2.05;;;22.00;67.00;;;;;;5036834;28;20026;-63
2022/07/30 09:24:08;;;;;;;4.13;1.98;;;22.10;66.70;;;;;;5038315;28;20028;-62
2022/07/30 09:26:58;;;;;;;3.75;2.10;;;22.10;66.80;;;;;;5040301;28;20495;-63
2022/07/30 09:29:29;;;;;;;3.42;2.30;;;22.10;66.90;;;;;;5040755;28;20017;-63
2022/07/30 09:32:00;;;;;;;3.15;1.92;;;22.20;66.50;;;;;;5040719;28;20032;-63
2022/07/30 09:34:34;;;;;;;3.90;1.98;;;22.20;66.70;;;;;;5040621;28;20026;-62
2022/07/30 09:37:03;;;;;;;4.07;2.20;;;22.30;66.70;;;;;;5040609;28;20025;-63
2022/07/30 09:39:34;;;;;;;4.47;2.17;;;22.50;66.50;;;;;;5039542;28;20487;-62
2022/07/30 09:42:02;;;;;;;4.07;1.98;;;22.60;66.00;;;;;;5040204;28;20021;-63
2022/07/30 09:44:29;;;;;;;4.63;2.05;;;22.70;66.30;;;;;;5040318;28;20502;-63
2022/07/30 09:46:56;;;;;;;3.70;1.88;;;23.00;65.50;;;;;;5040226;28;20032;-62
2022/07/30 09:49:28;;;;;;;3.42;1.73;;;23.10;65.30;;;;;;5040594;28;20021;-63
2022/07/30 09:51:55;;;;;;;2.80;1.98;;;23.30;65.00;;;;;;5040528;28;20034;-63
2022/07/30 09:54:21;;;;;;;4.32;2.05;;;23.50;64.90;;;;;;5040284;28;20108;-62
2022/07/30 09:56:47;;;;;;;2.50;1.73;;;23.70;64.50;;;;;;5039788;28;20453;-63
2022/07/30 09:59:29;;;;;;;2.22;1.75;;;24.00;64.50;;;;;;5039849;28;20025;-63
2022/07/30 10:01:56;;;;;;;4.00;1.73;;;24.30;62.80;;;;;;5021997;28;20073;-63
2022/07/30 10:04:24;;;;;;;1.77;1.50;;;24.60;63.80;;;;;;5039960;28;20382;-63
2022/07/30 10:06:50;;;;;;;2.15;1.38;;;24.90;61.50;;;;;;5039641;28;20087;-62
2022/07/30 10:09:33;;;;;;;2.03;1.30;;;25.10;63.20;;;;;;5039704;28;20033;-62
2022/07/30 10:12:04;;;;;;;2.28;1.42;;;25.60;61.80;;;;;;5039469;28;20033;-62
2022/07/30 10:14:34;;;;;;;2.78;1.10;;;26.10;62.20;;;;;;5039887;28;20033;-62
2022/07/30 10:17:00;;;;;;;1.90;1.10;;;26.60;56.30;;;;;;5039819;28;20060;-62
2022/07/30 10:19:27;;;;;;;1.70;1.23;;;26.90;60.20;;;;;;5039762;28;20050;-62
2022/07/30 10:21:56;;;;;;;3.33;1.10;;;27.40;54.20;;;;;;5038942;28;20090;-62
2022/07/30 10:24:24;;;;;;;1.75;1.08;;;27.80;59.40;;;;;;5039200;28;20025;-62
2022/07/30 10:26:54;;;;;;;1.33;1.20;;;28.00;57.20;;;;;;5039712;28;20021;-62
2022/07/30 10:29:21;;;;;;;1.30;1.20;;;28.10;57.00;;;;;;5039135;28;20396;-62
2022/07/30 10:31:48;;;;;;;2.17;0.95;;;28.50;56.80;;;;;;5039495;28;20028;-62
2022/07/30 10:34:16;;;;;;;1.63;1.00;;;28.90;57.30;;;;;;5039090;28;20101;-62
2022/07/30 10:36:56;;;;;;;1.52;0.95;;;29.20;52.10;;;;;;5038462;28;20072;-62
2022/07/30 10:39:31;;;;;;;1.38;1.00;;;29.70;58.30;;;;;;5038859;28;20381;-62
2022/07/30 10:42:29;;;;;;;3.95;1.60;;;29.90;57.20;;;;;;5039132;28;20391;-63
2022/07/30 10:45:02;;;;;;;3.03;1.00;;;30.20;54.60;;;;;;5038823;28;20109;-62
2022/07/30 10:47:29;;;;;;;3.05;1.52;;;30.40;48.70;;;;;;5039123;28;20022;-63
2022/07/30 10:50:15;;;;;;;1.95;1.00;;;30.50;49.60;;;;;;5039034;28;20041;-63
2022/07/30 10:52:49;;;;;;;2.85;1.38;;;30.80;46.50;;;;;;5038970;28;20469;-63
2022/07/30 10:55:21;;;;;;;2.05;1.20;;;31.10;52.80;;;;;;5038890;28;20033;-63
2022/07/30 10:57:57;;;;;;;2.50;1.30;;;31.20;48.70;;;;;;5038942;28;20049;-62
2022/07/30 11:00:24;;;;;;;1.45;1.00;;;31.60;42.60;;;;;;5039126;28;20084;-63
2022/07/30 11:03:11;;;;;;;2.22;1.10;;;32.00;45.80;;;;;;5038786;28;20029;-63
2022/07/30 11:05:37;;;;;;;2.83;1.13;;;32.30;52.80;;;;;;5038910;28;20017;-63
2022/07/30 11:08:29;;;;;;;1.90;1.25;;;32.60;46.60;;;;;;5038456;28;20048;-63
2022/07/30 11:10:55;;;;;;;1.13;0.90;;;32.40;43.80;;;;;;5038554;28;20430;-63
2022/07/30 11:14:01;;;;;;;1.00;0.90;;;32.10;42.00;;;;;;5038900;28;20132;-63
2022/07/30 11:16:32;;;;;;;1.10;1.10;;;32.10;47.20;;;;;;5038248;28;20051;-62
2022/07/30 11:19:01;;;;;;;1.50;1.10;;;32.00;44.40;;;;;;5038255;28;20029;-62
2022/07/30 11:21:27;;;;;;;1.42;1.10;;;32.50;45.60;;;;;;5038600;28;20079;-62
2022/07/30 11:23:53;;;;;;;1.30;1.17;;;32.80;41.30;;;;;;5038186;28;20025;-62
2022/07/30 11:26:37;;;;;;;1.00;1.00;;;33.20;45.30;;;;;;5037829;28;20014;-62
2022/07/30 11:29:04;;;;;;;1.38;1.08;;;33.50;45.80;;;;;;5038241;28;20083;-62
2022/07/30 11:31:32;;;;;;;1.73;1.00;;;33.50;42.20;;;;;;5038082;28;20025;-62
2022/07/30 11:34:17;;;;;;;2.03;1.00;;;33.40;44.50;;;;;;5038028;28;20611;-62
2022/07/30 11:37:05;;;;;;;1.52;1.10;;;33.30;40.50;;;;;;5038161;28;20036;-62
2022/07/30 11:40:05;;;;;;;1.10;1.00;;;33.40;45.70;;;;;;5038110;28;20030;-62
2022/07/30 11:42:33;;;;;;;1.42;1.20;;;33.50;43.00;;;;;;5026441;28;20029;-62
2022/07/30 11:45:17;;;;;;;1.77;1.20;;;33.80;41.90;;;;;;5038169;28;20026;-62
2022/07/30 11:47:47;;;;;;;1.27;1.10;;;33.90;39.80;;;;;;5037789;28;20021;-62
2022/07/30 11:50:32;;;;;;;1.27;1.10;;;34.00;40.70;;;;;;5038143;28;20483;-62
2022/07/30 11:53:00;;;;;;;1.45;1.30;;;34.20;39.40;;;;;;5038288;28;20036;-62
2022/07/30 11:55:29;;;;;;;1.48;1.38;;;34.40;41.90;;;;;;5037941;28;20029;-62
2022/07/30 11:57:56;;;;;;;1.95;1.30;;;34.60;38.40;;;;;;5037768;28;20060;-62
2022/07/30 12:00:22;;;;;;;2.38;1.25;;;34.80;40.30;;;;;;5037693;28;20055;-62
2022/07/30 12:02:49;;;;;;;1.30;1.20;;;35.00;41.70;;;;;;5037819;28;20017;-62
2022/07/30 12:05:22;;;;;;;1.42;1.10;;;35.20;41.20;;;;;;5037588;28;20045;-62
2022/07/30 12:07:48;;;;;;;1.77;1.10;;;35.40;38.60;;;;;;5037121;28;20038;-62
2022/07/30 12:10:17;;;;;;;1.85;1.00;;;35.20;37.60;;;;;;5037534;28;20087;-62
2022/07/30 12:12:44;;;;;;;2.53;1.40;;;35.40;39.30;;;;;;5037694;28;20028;-62
2022/07/30 12:15:26;;;;;;;1.77;1.25;;;35.70;35.60;;;;;;5037678;28;20533;-62
2022/07/30 12:17:52;;;;;;;2.35;1.30;;;35.70;38.60;;;;;;5037374;28;20051;-62
2022/07/30 12:20:19;;;;;;;1.60;1.35;;;35.90;37.90;;;;;;5037657;28;20025;-62
2022/07/30 12:22:45;;;;;;;4.00;1.40;;;36.10;36.10;;;;;;5037572;28;20044;-62
2022/07/30 12:25:11;;;;;;;2.20;1.30;;;36.30;38.60;;;;;;5037490;28;20021;-63
2022/07/30 12:27:38;;;;;;;2.65;1.40;;;35.80;36.50;;;;;;5037505;28;20083;-63
2022/07/30 12:30:05;;;;;;;3.53;1.38;;;35.00;35.40;;;;;;5037276;28;20021;-63
2022/07/30 12:32:31;;;;;;;3.67;1.80;;;34.50;36.60;;;;;;5037022;28;20028;-63
2022/07/30 12:34:57;;;;;;;3.80;1.33;;;34.10;37.90;;;;;;5037190;28;20469;-63
2022/07/30 12:37:23;;;;;;;3.63;1.63;;;34.30;38.10;;;;;;5037380;28;20036;-62
2022/07/30 12:40:11;;;;;;;3.72;1.92;;;34.30;38.30;;;;;;5037048;28;20108;-63
2022/07/30 12:42:52;;;;;;;5.93;2.53;;;34.20;38.20;;;;;;5037129;28;20022;-63
2022/07/30 12:45:30;;;;;;;2.70;1.83;;;34.00;37.90;;;;;;5037126;28;20108;-63
2022/07/30 12:48:00;;;;;;;5.53;1.77;;;33.20;38.80;;;;;;5037414;28;20032;-63
2022/07/30 12:50:27;;;;;;;4.07;1.67;;;32.90;38.80;;;;;;5036976;28;20448;-62
2022/07/30 12:52:54;;;;;;;2.35;1.30;;;32.70;39.20;;;;;;5037149;28;20104;-63